sensor_id;sensor_type;location;lat;lon;timestamp;temperature;humidity
5346;DHT22;2695;49.444;11.054;2023-03-23T00:01:01;12.80;94.20
5346;DHT22;2695;49.444;11.054;2023-03-23T00:03:28;12.80;94.40
5346;DHT22;2695;49.444;11.054;2023-03-23T00:05:57;12.70;94.60
5346;DHT22;2695;49.444;11.054;2023-03-23T00:08:30;12.70;94.90
5346;DHT22;2695;49.444;11.054;2023-03-23T00:10:58;12.70;95.00
5346;DHT22;2695;49.444;11.054;2023-03-23T00:13:27;12.60;95.20
5346;DHT22;2695;49.444;11.054;2023-03-23T00:15:54;12.50;95.50
5346;DHT22;2695;49.444;11.054;2023-03-23T00:18:24;12.60;95.60
5346;DHT22;2695;49.444;11.054;2023-03-23T00:20:53;12.50;95.70
5346;DHT22;2695;49.444;11.054;2023-03-23T00:23:21;12.50;95.90
5346;DHT22;2695;49.444;11.054;2023-03-23T00:25:50;12.40;96.20
5346;DHT22;2695;49.444;11.054;2023-03-23T00:28:19;12.40;96.50
5346;DHT22;2695;49.444;11.054;2023-03-23T00:30:54;12.40;96.70
5346;DHT22;2695;49.444;11.054;2023-03-23T00:33:23;12.40;96.70
5346;DHT22;2695;49.444;11.054;2023-03-23T00:35:51;12.40;96.80
5346;DHT22;2695;49.444;11.054;2023-03-23T00:38:20;12.50;96.70
5346;DHT22;2695;49.444;11.054;2023-03-23T00:40:47;12.40;96.70
5346;DHT22;2695;49.444;11.054;2023-03-23T00:43:14;12.50;96.70
5346;DHT22;2695;49.444;11.054;2023-03-23T00:45:42;12.50;96.70
5346;DHT22;2695;49.444;11.054;2023-03-23T00:48:10;12.50;96.60
5346;DHT22;2695;49.444;11.054;2023-03-23T00:50:40;12.50;97.00
5346;DHT22;2695;49.444;11.054;2023-03-23T00:53:07;12.50;96.70
5346;DHT22;2695;49.444;11.054;2023-03-23T00:55:34;12.40;96.90
5346;DHT22;2695;49.444;11.054;2023-03-23T00:58:01;12.40;96.90
5346;DHT22;2695;49.444;11.054;2023-03-23T01:00:27;12.40;96.70
5346;DHT22;2695;49.444;11.054;2023-03-23T01:02:54;12.30;96.80
5346;DHT22;2695;49.444;11.054;2023-03-23T01:05:21;12.20;96.90
5346;DHT22;2695;49.444;11.054;2023-03-23T01:07:50;12.20;97.10
5346;DHT22;2695;49.444;11.054;2023-03-23T01:10:16;12.20;97.30
5346;DHT22;2695;49.444;11.054;2023-03-23T01:12:44;12.20;97.40
5346;DHT22;2695;49.444;11.054;2023-03-23T01:15:15;12.30;97.20
5346;DHT22;2695;49.444;11.054;2023-03-23T01:17:43;12.40;97.20
5346;DHT22;2695;49.444;11.054;2023-03-23T01:20:11;12.40;97.20
5346;DHT22;2695;49.444;11.054;2023-03-23T01:22:40;12.50;96.90
5346;DHT22;2695;49.444;11.054;2023-03-23T01:25:10;12.50;96.80
5346;DHT22;2695;49.444;11.054;2023-03-23T01:27:38;12.60;96.70
5346;DHT22;2695;49.444;11.054;2023-03-23T01:30:06;12.70;96.50
5346;DHT22;2695;49.444;11.054;2023-03-23T01:32:34;12.70;96.30
5346;DHT22;2695;49.444;11.054;2023-03-23T01:35:01;12.70;96.30
5346;DHT22;2695;49.444;11.054;2023-03-23T01:37:27;12.90;96.30
5346;DHT22;2695;49.444;11.054;2023-03-23T01:39:55;12.80;96.20
5346;DHT22;2695;49.444;11.054;2023-03-23T01:42:25;12.80;95.90
5346;DHT22;2695;49.444;11.054;2023-03-23T01:45:27;12.80;95.80
5346;DHT22;2695;49.444;11.054;2023-03-23T01:48:05;12.80;95.70
5346;DHT22;2695;49.444;11.054;2023-03-23T01:50:37;12.80;95.50
5346;DHT22;2695;49.444;11.054;2023-03-23T01:53:08;12.80;95.60
5346;DHT22;2695;49.444;11.054;2023-03-23T01:55:37;12.80;95.20
5346;DHT22;2695;49.444;11.054;2023-03-23T01:58:06;12.90;95.20
5346;DHT22;2695;49.444;11.054;2023-03-23T02:00:35;12.90;95.50
5346;DHT22;2695;49.444;11.054;2023-03-23T02:03:03;13.00;95.20
5346;DHT22;2695;49.444;11.054;2023-03-23T02:05:34;13.10;95.20
5346;DHT22;2695;49.444;11.054;2023-03-23T02:08:04;13.20;95.20
5346;DHT22;2695;49.444;11.054;2023-03-23T02:10:35;13.20;94.80
5346;DHT22;2695;49.444;11.054;2023-03-23T02:13:04;13.20;94.80
5346;DHT22;2695;49.444;11.054;2023-03-23T02:15:40;13.20;94.70
5346;DHT22;2695;49.444;11.054;2023-03-23T02:18:16;13.20;94.60
5346;DHT22;2695;49.444;11.054;2023-03-23T02:21:25;13.20;94.40
5346;DHT22;2695;49.444;11.054;2023-03-23T02:24:16;13.20;94.50
5346;DHT22;2695;49.444;11.054;2023-03-23T02:26:51;13.10;94.30
5346;DHT22;2695;49.444;11.054;2023-03-23T02:29:30;13.10;94.40
5346;DHT22;2695;49.444;11.054;2023-03-23T02:32:12;13.10;94.40
5346;DHT22;2695;49.444;11.054;2023-03-23T02:34:46;13.10;94.40
5346;DHT22;2695;49.444;11.054;2023-03-23T02:37:19;13.20;94.40
5346;DHT22;2695;49.444;11.054;2023-03-23T02:39:51;13.20;94.30
5346;DHT22;2695;49.444;11.054;2023-03-23T02:42:22;13.30;94.20
5346;DHT22;2695;49.444;11.054;2023-03-23T02:44:52;13.20;94.00
5346;DHT22;2695;49.444;11.054;2023-03-23T02:47:22;13.30;93.80
5346;DHT22;2695;49.444;11.054;2023-03-23T02:49:53;13.30;93.80
5346;DHT22;2695;49.444;11.054;2023-03-23T02:52:23;13.20;93.70
5346;DHT22;2695;49.444;11.054;2023-03-23T02:54:52;13.20;93.60
5346;DHT22;2695;49.444;11.054;2023-03-23T02:57:22;13.30;93.70
5346;DHT22;2695;49.444;11.054;2023-03-23T02:59:50;13.20;93.80
5346;DHT22;2695;49.444;11.054;2023-03-23T03:02:17;13.10;93.60
5346;DHT22;2695;49.444;11.054;2023-03-23T03:04:48;13.20;93.80
5346;DHT22;2695;49.444;11.054;2023-03-23T03:07:37;13.30;93.90
5346;DHT22;2695;49.444;11.054;2023-03-23T03:10:13;13.20;93.70
5346;DHT22;2695;49.444;11.054;2023-03-23T03:12:52;13.20;93.70
5346;DHT22;2695;49.444;11.054;2023-03-23T03:15:25;13.20;93.60
5346;DHT22;2695;49.444;11.054;2023-03-23T03:17:59;13.20;93.70
5346;DHT22;2695;49.444;11.054;2023-03-23T03:20:28;13.30;93.60
5346;DHT22;2695;49.444;11.054;2023-03-23T03:22:58;13.30;93.70
5346;DHT22;2695;49.444;11.054;2023-03-23T03:25:29;13.30;93.70
5346;DHT22;2695;49.444;11.054;2023-03-23T03:27:57;13.30;93.70
5346;DHT22;2695;49.444;11.054;2023-03-23T03:30:27;13.30;93.80
5346;DHT22;2695;49.444;11.054;2023-03-23T03:32:56;13.20;93.70
5346;DHT22;2695;49.444;11.054;2023-03-23T03:35:26;13.20;93.80
5346;DHT22;2695;49.444;11.054;2023-03-23T03:37:53;13.20;93.80
5346;DHT22;2695;49.444;11.054;2023-03-23T03:40:22;13.10;94.00
5346;DHT22;2695;49.444;11.054;2023-03-23T03:42:49;13.00;94.20
5346;DHT22;2695;49.444;11.054;2023-03-23T03:45:18;13.00;94.40
5346;DHT22;2695;49.444;11.054;2023-03-23T03:47:45;12.90;94.50
5346;DHT22;2695;49.444;11.054;2023-03-23T03:50:13;12.90;94.60
5346;DHT22;2695;49.444;11.054;2023-03-23T03:52:39;12.80;94.70
5346;DHT22;2695;49.444;11.054;2023-03-23T03:55:07;12.80;94.90
5346;DHT22;2695;49.444;11.054;2023-03-23T03:57:37;12.80;95.20
5346;DHT22;2695;49.444;11.054;2023-03-23T04:00:07;12.80;95.10
5346;DHT22;2695;49.444;11.054;2023-03-23T04:02:41;12.80;95.20
5346;DHT22;2695;49.444;11.054;2023-03-23T04:05:09;12.80;95.40
5346;DHT22;2695;49.444;11.054;2023-03-23T04:07:37;12.70;95.40
5346;DHT22;2695;49.444;11.054;2023-03-23T04:10:06;12.80;95.60
5346;DHT22;2695;49.444;11.054;2023-03-23T04:12:34;12.80;95.60
5346;DHT22;2695;49.444;11.054;2023-03-23T04:15:05;12.80;95.70
5346;DHT22;2695;49.444;11.054;2023-03-23T04:17:33;12.90;95.90
5346;DHT22;2695;49.444;11.054;2023-03-23T04:20:00;12.90;95.70
5346;DHT22;2695;49.444;11.054;2023-03-23T04:22:28;12.90;95.80
5346;DHT22;2695;49.444;11.054;2023-03-23T04:24:57;12.90;95.90
5346;DHT22;2695;49.444;11.054;2023-03-23T04:27:26;12.90;96.00
5346;DHT22;2695;49.444;11.054;2023-03-23T04:29:55;12.90;96.10
5346;DHT22;2695;49.444;11.054;2023-03-23T04:32:25;12.90;96.20
5346;DHT22;2695;49.444;11.054;2023-03-23T04:34:55;12.90;96.10
5346;DHT22;2695;49.444;11.054;2023-03-23T04:37:23;12.90;96.30
5346;DHT22;2695;49.444;11.054;2023-03-23T04:39:54;12.80;96.50
5346;DHT22;2695;49.444;11.054;2023-03-23T04:42:26;12.80;96.60
5346;DHT22;2695;49.444;11.054;2023-03-23T04:44:53;12.80;96.70
5346;DHT22;2695;49.444;11.054;2023-03-23T04:47:21;12.80;96.70
5346;DHT22;2695;49.444;11.054;2023-03-23T04:49:49;12.80;96.60
5346;DHT22;2695;49.444;11.054;2023-03-23T04:52:19;12.80;96.70
5346;DHT22;2695;49.444;11.054;2023-03-23T04:54:46;12.90;96.70
5346;DHT22;2695;49.444;11.054;2023-03-23T04:57:13;12.80;96.70
5346;DHT22;2695;49.444;11.054;2023-03-23T04:59:41;12.80;96.90
5346;DHT22;2695;49.444;11.054;2023-03-23T05:02:09;12.80;96.90
5346;DHT22;2695;49.444;11.054;2023-03-23T05:04:36;12.80;96.80
5346;DHT22;2695;49.444;11.054;2023-03-23T05:07:05;12.80;96.80
5346;DHT22;2695;49.444;11.054;2023-03-23T05:09:33;12.90;96.80
5346;DHT22;2695;49.444;11.054;2023-03-23T05:12:04;12.80;96.90
5346;DHT22;2695;49.444;11.054;2023-03-23T05:14:31;12.80;96.90
5346;DHT22;2695;49.444;11.054;2023-03-23T05:16:58;12.80;97.10
5346;DHT22;2695;49.444;11.054;2023-03-23T05:19:25;12.70;96.80
5346;DHT22;2695;49.444;11.054;2023-03-23T05:21:53;12.90;97.00
5346;DHT22;2695;49.444;11.054;2023-03-23T05:24:21;12.80;97.00
5346;DHT22;2695;49.444;11.054;2023-03-23T05:26:49;12.80;97.00
5346;DHT22;2695;49.444;11.054;2023-03-23T05:29:18;12.80;97.10
5346;DHT22;2695;49.444;11.054;2023-03-23T05:31:45;12.90;97.10
5346;DHT22;2695;49.444;11.054;2023-03-23T05:34:13;12.90;97.10
5346;DHT22;2695;49.444;11.054;2023-03-23T05:36:41;12.90;97.10
5346;DHT22;2695;49.444;11.054;2023-03-23T05:39:09;13.00;97.20
5346;DHT22;2695;49.444;11.054;2023-03-23T05:41:38;13.00;97.00
5346;DHT22;2695;49.444;11.054;2023-03-23T05:44:05;13.10;97.00
5346;DHT22;2695;49.444;11.054;2023-03-23T05:46:33;13.10;96.90
5346;DHT22;2695;49.444;11.054;2023-03-23T05:49:00;13.10;96.70
5346;DHT22;2695;49.444;11.054;2023-03-23T05:51:27;13.10;96.40
5346;DHT22;2695;49.444;11.054;2023-03-23T05:53:55;13.20;96.40
5346;DHT22;2695;49.444;11.054;2023-03-23T05:56:22;13.20;96.30
5346;DHT22;2695;49.444;11.054;2023-03-23T05:58:50;13.20;96.30
5346;DHT22;2695;49.444;11.054;2023-03-23T06:01:17;13.30;96.30
5346;DHT22;2695;49.444;11.054;2023-03-23T06:03:44;13.30;96.30
5346;DHT22;2695;49.444;11.054;2023-03-23T06:06:11;13.40;96.10
5346;DHT22;2695;49.444;11.054;2023-03-23T06:08:38;13.20;95.70
5346;DHT22;2695;49.444;11.054;2023-03-23T06:11:05;13.40;95.80
5346;DHT22;2695;49.444;11.054;2023-03-23T06:13:32;13.30;96.10
5346;DHT22;2695;49.444;11.054;2023-03-23T06:16:00;13.40;97.50
5346;DHT22;2695;49.444;11.054;2023-03-23T06:18:27;13.30;97.90
5346;DHT22;2695;49.444;11.054;2023-03-23T06:20:55;13.40;97.90
5346;DHT22;2695;49.444;11.054;2023-03-23T06:23:22;13.30;97.20
5346;DHT22;2695;49.444;11.054;2023-03-23T06:25:52;13.40;96.90
5346;DHT22;2695;49.444;11.054;2023-03-23T06:28:20;13.60;96.50
5346;DHT22;2695;49.444;11.054;2023-03-23T06:30:46;13.60;96.60
5346;DHT22;2695;49.444;11.054;2023-03-23T06:33:15;13.60;96.30
5346;DHT22;2695;49.444;11.054;2023-03-23T06:35:42;13.60;96.20
5346;DHT22;2695;49.444;11.054;2023-03-23T06:38:10;13.70;96.20
5346;DHT22;2695;49.444;11.054;2023-03-23T06:40:38;13.60;96.30
5346;DHT22;2695;49.444;11.054;2023-03-23T06:43:05;13.50;96.40
5346;DHT22;2695;49.444;11.054;2023-03-23T06:45:32;13.50;96.30
5346;DHT22;2695;49.444;11.054;2023-03-23T06:47:59;13.60;96.30
5346;DHT22;2695;49.444;11.054;2023-03-23T06:50:27;13.60;96.20
5346;DHT22;2695;49.444;11.054;2023-03-23T06:52:54;13.80;96.30
5346;DHT22;2695;49.444;11.054;2023-03-23T06:55:21;13.70;96.10
5346;DHT22;2695;49.444;11.054;2023-03-23T06:57:48;13.80;96.20
5346;DHT22;2695;49.444;11.054;2023-03-23T07:00:16;13.90;96.00
5346;DHT22;2695;49.444;11.054;2023-03-23T07:02:43;13.90;95.80
5346;DHT22;2695;49.444;11.054;2023-03-23T07:05:11;14.10;95.70
5346;DHT22;2695;49.444;11.054;2023-03-23T07:07:40;14.10;95.40
5346;DHT22;2695;49.444;11.054;2023-03-23T07:10:08;14.30;95.30
5346;DHT22;2695;49.444;11.054;2023-03-23T07:12:36;14.40;95.20
5346;DHT22;2695;49.444;11.054;2023-03-23T07:15:03;14.70;95.10
5346;DHT22;2695;49.444;11.054;2023-03-23T07:17:30;15.10;94.60
5346;DHT22;2695;49.444;11.054;2023-03-23T07:19:58;15.50;94.10
5346;DHT22;2695;49.444;11.054;2023-03-23T07:22:25;15.80;93.70
5346;DHT22;2695;49.444;11.054;2023-03-23T07:24:53;16.30;92.70
5346;DHT22;2695;49.444;11.054;2023-03-23T07:27:21;16.30;92.20
5346;DHT22;2695;49.444;11.054;2023-03-23T07:29:48;16.30;91.90
5346;DHT22;2695;49.444;11.054;2023-03-23T07:32:15;16.20;91.90
5346;DHT22;2695;49.444;11.054;2023-03-23T07:34:42;16.10;92.00
5346;DHT22;2695;49.444;11.054;2023-03-23T07:37:09;16.00;92.30
5346;DHT22;2695;49.444;11.054;2023-03-23T07:39:36;15.80;92.50
5346;DHT22;2695;49.444;11.054;2023-03-23T07:42:05;15.70;92.70
5346;DHT22;2695;49.444;11.054;2023-03-23T07:44:33;15.50;92.70
5346;DHT22;2695;49.444;11.054;2023-03-23T07:47:00;15.30;93.10
5346;DHT22;2695;49.444;11.054;2023-03-23T07:49:30;15.30;93.80
5346;DHT22;2695;49.444;11.054;2023-03-23T07:52:01;15.20;93.50
5346;DHT22;2695;49.444;11.054;2023-03-23T07:54:34;15.20;93.70
5346;DHT22;2695;49.444;11.054;2023-03-23T07:57:01;15.10;94.30
5346;DHT22;2695;49.444;11.054;2023-03-23T07:59:29;15.30;95.20
5346;DHT22;2695;49.444;11.054;2023-03-23T08:01:57;15.30;94.60
5346;DHT22;2695;49.444;11.054;2023-03-23T08:04:24;15.40;94.90
5346;DHT22;2695;49.444;11.054;2023-03-23T08:06:52;15.40;95.90
5346;DHT22;2695;49.444;11.054;2023-03-23T08:09:19;15.30;96.70
5346;DHT22;2695;49.444;11.054;2023-03-23T08:11:47;15.30;96.10
5346;DHT22;2695;49.444;11.054;2023-03-23T08:14:14;15.40;96.10
5346;DHT22;2695;49.444;11.054;2023-03-23T08:16:42;15.40;95.50
5346;DHT22;2695;49.444;11.054;2023-03-23T08:19:09;15.40;95.40
5346;DHT22;2695;49.444;11.054;2023-03-23T08:21:36;15.40;95.10
5346;DHT22;2695;49.444;11.054;2023-03-23T08:24:03;15.40;95.50
5346;DHT22;2695;49.444;11.054;2023-03-23T08:26:30;15.50;95.00
5346;DHT22;2695;49.444;11.054;2023-03-23T08:28:57;15.50;95.20
5346;DHT22;2695;49.444;11.054;2023-03-23T08:31:24;15.40;95.80
5346;DHT22;2695;49.444;11.054;2023-03-23T08:33:54;15.40;95.80
5346;DHT22;2695;49.444;11.054;2023-03-23T08:36:22;15.30;95.70
5346;DHT22;2695;49.444;11.054;2023-03-23T08:38:49;15.20;96.00
5346;DHT22;2695;49.444;11.054;2023-03-23T08:41:17;15.20;95.70
5346;DHT22;2695;49.444;11.054;2023-03-23T08:43:44;15.20;96.10
5346;DHT22;2695;49.444;11.054;2023-03-23T08:46:12;15.30;96.00
5346;DHT22;2695;49.444;11.054;2023-03-23T08:48:39;15.20;95.70
5346;DHT22;2695;49.444;11.054;2023-03-23T08:51:08;15.30;95.80
5346;DHT22;2695;49.444;11.054;2023-03-23T08:53:35;15.30;96.80
5346;DHT22;2695;49.444;11.054;2023-03-23T08:56:04;15.30;96.10
5346;DHT22;2695;49.444;11.054;2023-03-23T08:58:31;15.40;96.10
5346;DHT22;2695;49.444;11.054;2023-03-23T09:00:58;15.50;95.80
5346;DHT22;2695;49.444;11.054;2023-03-23T09:03:25;15.60;95.90
5346;DHT22;2695;49.444;11.054;2023-03-23T09:05:52;15.70;95.90
5346;DHT22;2695;49.444;11.054;2023-03-23T09:08:20;15.80;95.70
5346;DHT22;2695;49.444;11.054;2023-03-23T09:10:47;15.90;95.70
5346;DHT22;2695;49.444;11.054;2023-03-23T09:13:15;16.00;95.80
5346;DHT22;2695;49.444;11.054;2023-03-23T09:15:42;16.10;95.00
5346;DHT22;2695;49.444;11.054;2023-03-23T09:18:10;16.10;95.00
5346;DHT22;2695;49.444;11.054;2023-03-23T09:20:37;16.10;95.50
5346;DHT22;2695;49.444;11.054;2023-03-23T09:23:04;16.10;95.10
5346;DHT22;2695;49.444;11.054;2023-03-23T09:25:32;16.10;95.00
5346;DHT22;2695;49.444;11.054;2023-03-23T09:27:59;16.20;94.90
5346;DHT22;2695;49.444;11.054;2023-03-23T09:30:28;16.20;95.00
5346;DHT22;2695;49.444;11.054;2023-03-23T09:32:56;16.30;94.60
5346;DHT22;2695;49.444;11.054;2023-03-23T09:35:26;16.50;94.20
5346;DHT22;2695;49.444;11.054;2023-03-23T09:37:54;16.50;94.00
5346;DHT22;2695;49.444;11.054;2023-03-23T09:40:22;16.70;94.00
5346;DHT22;2695;49.444;11.054;2023-03-23T09:45:55;16.80;93.50
5346;DHT22;2695;49.444;11.054;2023-03-23T09:48:36;16.70;93.40
5346;DHT22;2695;49.444;11.054;2023-03-23T09:51:11;16.70;93.60
5346;DHT22;2695;49.444;11.054;2023-03-23T09:53:42;16.70;93.50
5346;DHT22;2695;49.444;11.054;2023-03-23T09:56:13;16.80;93.40
5346;DHT22;2695;49.444;11.054;2023-03-23T09:58:46;16.80;93.10
5346;DHT22;2695;49.444;11.054;2023-03-23T10:01:21;16.80;93.40
5346;DHT22;2695;49.444;11.054;2023-03-23T10:03:55;17.00;93.10
5346;DHT22;2695;49.444;11.054;2023-03-23T10:06:25;17.10;92.90
5346;DHT22;2695;49.444;11.054;2023-03-23T10:08:53;17.20;93.20
5346;DHT22;2695;49.444;11.054;2023-03-23T10:11:28;17.20;92.80
5346;DHT22;2695;49.444;11.054;2023-03-23T10:14:21;17.10;93.00
5346;DHT22;2695;49.444;11.054;2023-03-23T10:16:58;17.20;93.10
5346;DHT22;2695;49.444;11.054;2023-03-23T10:19:30;17.30;93.00
5346;DHT22;2695;49.444;11.054;2023-03-23T10:22:02;17.40;93.00
5346;DHT22;2695;49.444;11.054;2023-03-23T10:24:34;17.40;93.10
5346;DHT22;2695;49.444;11.054;2023-03-23T10:27:11;17.40;93.30
5346;DHT22;2695;49.444;11.054;2023-03-23T10:29:46;17.20;93.60
5346;DHT22;2695;49.444;11.054;2023-03-23T10:32:18;17.20;93.50
5346;DHT22;2695;49.444;11.054;2023-03-23T10:34:50;17.20;93.80
5346;DHT22;2695;49.444;11.054;2023-03-23T10:37:21;17.10;94.00
5346;DHT22;2695;49.444;11.054;2023-03-23T10:39:51;17.00;94.50
5346;DHT22;2695;49.444;11.054;2023-03-23T10:42:28;17.00;95.00
5346;DHT22;2695;49.444;11.054;2023-03-23T10:44:59;16.90;94.70
5346;DHT22;2695;49.444;11.054;2023-03-23T10:47:27;16.90;94.80
5346;DHT22;2695;49.444;11.054;2023-03-23T10:49:56;16.90;94.90
5346;DHT22;2695;49.444;11.054;2023-03-23T10:52:29;16.90;95.00
5346;DHT22;2695;49.444;11.054;2023-03-23T10:55:03;16.90;95.20
5346;DHT22;2695;49.444;11.054;2023-03-23T10:57:32;16.90;95.40
5346;DHT22;2695;49.444;11.054;2023-03-23T11:00:04;16.90;95.60
5346;DHT22;2695;49.444;11.054;2023-03-23T11:02:37;16.80;95.60
5346;DHT22;2695;49.444;11.054;2023-03-23T11:05:13;16.90;95.70
5346;DHT22;2695;49.444;11.054;2023-03-23T11:07:40;16.80;96.00
5346;DHT22;2695;49.444;11.054;2023-03-23T11:10:16;16.70;96.40
5346;DHT22;2695;49.444;11.054;2023-03-23T11:12:46;16.70;96.30
5346;DHT22;2695;49.444;11.054;2023-03-23T11:15:26;16.80;96.50
5346;DHT22;2695;49.444;11.054;2023-03-23T11:17:59;16.70;96.70
5346;DHT22;2695;49.444;11.054;2023-03-23T11:20:29;16.70;97.10
5346;DHT22;2695;49.444;11.054;2023-03-23T11:22:56;16.60;97.00
5346;DHT22;2695;49.444;11.054;2023-03-23T11:25:23;16.60;97.10
5346;DHT22;2695;49.444;11.054;2023-03-23T11:27:52;16.60;97.30
5346;DHT22;2695;49.444;11.054;2023-03-23T11:30:24;16.50;97.30
5346;DHT22;2695;49.444;11.054;2023-03-23T11:32:54;16.70;97.60
5346;DHT22;2695;49.444;11.054;2023-03-23T11:35:25;16.60;97.50
5346;DHT22;2695;49.444;11.054;2023-03-23T11:37:54;16.70;97.40
5346;DHT22;2695;49.444;11.054;2023-03-23T11:40:23;16.70;97.40
5346;DHT22;2695;49.444;11.054;2023-03-23T11:42:58;16.70;97.40
5346;DHT22;2695;49.444;11.054;2023-03-23T11:45:32;16.70;97.50
5346;DHT22;2695;49.444;11.054;2023-03-23T11:48:09;16.80;97.40
5346;DHT22;2695;49.444;11.054;2023-03-23T11:50:44;16.90;97.80
5346;DHT22;2695;49.444;11.054;2023-03-23T11:53:16;17.00;97.40
5346;DHT22;2695;49.444;11.054;2023-03-23T11:56:00;17.00;97.20
5346;DHT22;2695;49.444;11.054;2023-03-23T11:58:28;17.10;97.40
5346;DHT22;2695;49.444;11.054;2023-03-23T12:01:05;17.00;97.50
5346;DHT22;2695;49.444;11.054;2023-03-23T12:04:08;17.00;97.90
5346;DHT22;2695;49.444;11.054;2023-03-23T12:06:45;16.90;97.80
5346;DHT22;2695;49.444;11.054;2023-03-23T12:09:23;17.00;97.80
5346;DHT22;2695;49.444;11.054;2023-03-23T12:12:00;17.00;98.20
5346;DHT22;2695;49.444;11.054;2023-03-23T12:14:39;17.20;97.90
5346;DHT22;2695;49.444;11.054;2023-03-23T12:17:30;17.20;97.90
5346;DHT22;2695;49.444;11.054;2023-03-23T12:20:13;17.20;98.00
5346;DHT22;2695;49.444;11.054;2023-03-23T12:22:53;17.30;98.20
5346;DHT22;2695;49.444;11.054;2023-03-23T12:25:46;17.50;97.70
5346;DHT22;2695;49.444;11.054;2023-03-23T12:28:22;17.60;97.40
5346;DHT22;2695;49.444;11.054;2023-03-23T12:30:57;17.80;97.10
5346;DHT22;2695;49.444;11.054;2023-03-23T12:33:38;17.80;96.60
5346;DHT22;2695;49.444;11.054;2023-03-23T12:36:18;17.80;96.50
5346;DHT22;2695;49.444;11.054;2023-03-23T12:39:05;17.80;96.50
5346;DHT22;2695;49.444;11.054;2023-03-23T12:41:40;18.00;96.40
5346;DHT22;2695;49.444;11.054;2023-03-23T12:44:09;18.10;96.10
5346;DHT22;2695;49.444;11.054;2023-03-23T12:47:01;18.30;96.10
5346;DHT22;2695;49.444;11.054;2023-03-23T12:49:36;18.20;96.00
5346;DHT22;2695;49.444;11.054;2023-03-23T12:52:23;18.10;96.00
5346;DHT22;2695;49.444;11.054;2023-03-23T12:54:55;18.20;95.70
5346;DHT22;2695;49.444;11.054;2023-03-23T12:57:25;18.00;95.90
5346;DHT22;2695;49.444;11.054;2023-03-23T13:00:02;17.90;95.90
5346;DHT22;2695;49.444;11.054;2023-03-23T13:02:40;17.80;96.10
5346;DHT22;2695;49.444;11.054;2023-03-23T13:05:24;17.80;96.10
5346;DHT22;2695;49.444;11.054;2023-03-23T13:07:57;17.70;96.10
5346;DHT22;2695;49.444;11.054;2023-03-23T13:10:29;17.70;96.00
5346;DHT22;2695;49.444;11.054;2023-03-23T13:12:57;17.70;96.00
5346;DHT22;2695;49.444;11.054;2023-03-23T13:15:31;17.60;96.00
5346;DHT22;2695;49.444;11.054;2023-03-23T13:18:05;17.60;96.10
5346;DHT22;2695;49.444;11.054;2023-03-23T13:20:50;17.70;96.00
5346;DHT22;2695;49.444;11.054;2023-03-23T13:23:20;17.70;95.50
5346;DHT22;2695;49.444;11.054;2023-03-23T13:25:54;17.60;95.90
5346;DHT22;2695;49.444;11.054;2023-03-23T13:28:26;17.80;95.90
5346;DHT22;2695;49.444;11.054;2023-03-23T13:31:02;17.90;95.40
5346;DHT22;2695;49.444;11.054;2023-03-23T13:33:34;18.00;95.70
5346;DHT22;2695;49.444;11.054;2023-03-23T13:36:14;18.10;95.30
5346;DHT22;2695;49.444;11.054;2023-03-23T13:38:47;18.10;95.50
5346;DHT22;2695;49.444;11.054;2023-03-23T13:41:16;18.10;95.60
5346;DHT22;2695;49.444;11.054;2023-03-23T13:43:44;18.20;95.80
5346;DHT22;2695;49.444;11.054;2023-03-23T13:46:23;18.30;95.80
5346;DHT22;2695;49.444;11.054;2023-03-23T13:49:02;18.60;95.20
5346;DHT22;2695;49.444;11.054;2023-03-23T13:51:36;18.70;94.90
5346;DHT22;2695;49.444;11.054;2023-03-23T13:54:23;18.60;94.90
5346;DHT22;2695;49.444;11.054;2023-03-23T13:56:55;18.60;95.00
5346;DHT22;2695;49.444;11.054;2023-03-23T13:59:33;18.70;94.90
5346;DHT22;2695;49.444;11.054;2023-03-23T14:02:30;18.80;94.70
5346;DHT22;2695;49.444;11.054;2023-03-23T14:05:10;18.70;94.80
5346;DHT22;2695;49.444;11.054;2023-03-23T14:07:57;18.60;95.00
5346;DHT22;2695;49.444;11.054;2023-03-23T14:10:33;18.50;95.20
5346;DHT22;2695;49.444;11.054;2023-03-23T14:13:02;18.60;95.30
5346;DHT22;2695;49.444;11.054;2023-03-23T14:15:30;18.60;95.00
5346;DHT22;2695;49.444;11.054;2023-03-23T14:18:02;18.50;94.80
5346;DHT22;2695;49.444;11.054;2023-03-23T14:20:33;18.30;95.20
5346;DHT22;2695;49.444;11.054;2023-03-23T14:23:02;18.20;95.60
5346;DHT22;2695;49.444;11.054;2023-03-23T14:25:30;18.30;95.20
5346;DHT22;2695;49.444;11.054;2023-03-23T14:27:58;18.30;95.20
5346;DHT22;2695;49.444;11.054;2023-03-23T14:30:34;18.20;95.30
5346;DHT22;2695;49.444;11.054;2023-03-23T14:33:04;18.10;95.50
5346;DHT22;2695;49.444;11.054;2023-03-23T14:35:35;18.00;95.40
5346;DHT22;2695;49.444;11.054;2023-03-23T14:38:04;18.00;95.40
5346;DHT22;2695;49.444;11.054;2023-03-23T14:40:31;17.90;95.50
5346;DHT22;2695;49.444;11.054;2023-03-23T14:42:59;17.80;95.70
5346;DHT22;2695;49.444;11.054;2023-03-23T14:45:26;17.80;95.90
5346;DHT22;2695;49.444;11.054;2023-03-23T14:47:56;17.80;95.90
5346;DHT22;2695;49.444;11.054;2023-03-23T14:50:26;17.80;96.10
5346;DHT22;2695;49.444;11.054;2023-03-23T14:52:57;17.80;96.00
5346;DHT22;2695;49.444;11.054;2023-03-23T14:55:26;17.80;96.10
5346;DHT22;2695;49.444;11.054;2023-03-23T14:58:05;17.80;96.20
5346;DHT22;2695;49.444;11.054;2023-03-23T15:00:36;17.90;96.20
5346;DHT22;2695;49.444;11.054;2023-03-23T15:03:05;17.90;96.30
5346;DHT22;2695;49.444;11.054;2023-03-23T15:05:36;17.90;96.40
5346;DHT22;2695;49.444;11.054;2023-03-23T15:08:08;17.90;96.40
5346;DHT22;2695;49.444;11.054;2023-03-23T15:10:39;17.90;96.50
5346;DHT22;2695;49.444;11.054;2023-03-23T15:13:11;17.80;96.70
5346;DHT22;2695;49.444;11.054;2023-03-23T15:15:38;17.80;96.80
5346;DHT22;2695;49.444;11.054;2023-03-23T15:18:27;17.80;96.90
5346;DHT22;2695;49.444;11.054;2023-03-23T15:20:55;17.70;96.90
5346;DHT22;2695;49.444;11.054;2023-03-23T15:23:27;17.60;96.90
5346;DHT22;2695;49.444;11.054;2023-03-23T15:25:56;17.50;96.90
5346;DHT22;2695;49.444;11.054;2023-03-23T15:28:29;17.40;97.30
5346;DHT22;2695;49.444;11.054;2023-03-23T15:31:00;17.20;97.60
5346;DHT22;2695;49.444;11.054;2023-03-23T15:33:34;17.10;97.80
5346;DHT22;2695;49.444;11.054;2023-03-23T15:36:07;17.00;98.00
5346;DHT22;2695;49.444;11.054;2023-03-23T15:38:35;17.00;98.20
5346;DHT22;2695;49.444;11.054;2023-03-23T15:41:06;16.70;98.30
5346;DHT22;2695;49.444;11.054;2023-03-23T15:43:34;16.70;98.80
5346;DHT22;2695;49.444;11.054;2023-03-23T15:46:16;16.70;98.90
5346;DHT22;2695;49.444;11.054;2023-03-23T15:48:46;16.60;99.00
5346;DHT22;2695;49.444;11.054;2023-03-23T15:51:14;16.60;99.20
5346;DHT22;2695;49.444;11.054;2023-03-23T15:53:42;16.60;99.30
5346;DHT22;2695;49.444;11.054;2023-03-23T15:56:12;16.60;99.40
5346;DHT22;2695;49.444;11.054;2023-03-23T15:58:39;16.50;99.50
5346;DHT22;2695;49.444;11.054;2023-03-23T16:01:14;16.50;99.70
5346;DHT22;2695;49.444;11.054;2023-03-23T16:03:46;16.50;99.80
5346;DHT22;2695;49.444;11.054;2023-03-23T16:06:20;16.60;99.70
5346;DHT22;2695;49.444;11.054;2023-03-23T16:08:51;16.70;99.80
5346;DHT22;2695;49.444;11.054;2023-03-23T16:11:30;16.70;99.90